PWSweather.com
Personal Weather Stations
Station Observations

PoschiavoCH

Lat: 46.31962499999999, Lon: 10.066551000000004

Elevation: 3517

Station Type: WH 1080

http://www.meteoposchiavo.com

High Low Average
Temperature 65.0°F18.3°C 51.0°F10.6°C 55.8°F13.2°C
Dew Point 58.3°F14.6°C 49.3°F9.6°C 53.8°F12.1°C
Winds 2.3 mph 3.7 kmh Calm Calm Calm SECalm SE
Wind Gusts 3.5 mph5.6 kmh -- --
Humidity 99% 66% 94%
Pressure 26.73 in905.2 mb 26.57 in899.8 mb -
Precipitation 3.28 in83.3 mm - -
Hour Temp Dew Point Humidity Winds Wind Gusts Pressure Precip Precip Rate Daily Precip Total
12:00 AM 57.0°F13.9°C 54.7°F12.6°C 92% Calm Calm -- 26.65 in902.5 mb - 0.00 in0.0 mm 0.00 in0.0 mm
12:10 AM 57.0°F13.9°C 55.0°F12.8°C 93% Calm Calm -- 26.65 in902.5 mb - 0.00 in0.0 mm 0.00 in0.0 mm
12:15 AM 57.0°F13.9°C 54.7°F12.6°C 92% Calm Calm -- 26.65 in902.5 mb - 0.00 in0.0 mm 0.00 in0.0 mm
12:20 AM 57.0°F13.9°C 54.4°F12.4°C 91% Calm Calm -- 26.64 in902.1 mb - 0.00 in0.0 mm 0.00 in0.0 mm
12:25 AM 57.0°F13.9°C 54.4°F12.4°C 91% Calm Calm -- 26.64 in902.1 mb - 0.00 in0.0 mm 0.00 in0.0 mm
12:30 AM 57.0°F13.9°C 54.4°F12.4°C 91% Calm Calm -- 26.64 in902.1 mb - 0.00 in0.0 mm 0.00 in0.0 mm
12:35 AM 60.0°F15.6°C 58.3°F14.6°C 94% Calm Calm -- 26.63 in901.8 mb - 0.00 in0.0 mm 0.00 in0.0 mm
12:40 AM 57.0°F13.9°C 53.8°F12.1°C 89% Calm Calm -- 26.65 in902.5 mb - 0.00 in0.0 mm 0.00 in0.0 mm
12:45 AM 57.0°F13.9°C 54.1°F12.3°C 90% Calm Calm -- 26.66 in902.8 mb - 0.00 in0.0 mm 0.00 in0.0 mm
12:50 AM 57.0°F13.9°C 54.4°F12.4°C 91% Calm Calm -- 26.66 in902.8 mb - 0.00 in0.0 mm 0.00 in0.0 mm
12:55 AM 57.0°F13.9°C 54.7°F12.6°C 92% Calm Calm -- 26.65 in902.5 mb - 0.00 in0.0 mm 0.00 in0.0 mm
01:00 AM 57.0°F13.9°C 55.9°F13.3°C 96% Calm Calm -- 26.65 in902.5 mb - 0.01 in0.3 mm 0.01 in0.3 mm
01:10 AM 57.0°F13.9°C 55.9°F13.3°C 96% Calm Calm -- 26.65 in902.5 mb - 0.01 in0.3 mm 0.01 in0.3 mm
01:15 AM 57.0°F13.9°C 55.9°F13.3°C 96% Calm Calm -- 26.66 in902.8 mb - 0.01 in0.3 mm 0.01 in0.3 mm
01:20 AM 56.0°F13.3°C 54.6°F12.6°C 95% Calm Calm -- 26.66 in902.8 mb - 0.01 in0.3 mm 0.01 in0.3 mm
01:25 AM 57.0°F13.9°C 55.9°F13.3°C 96% Calm Calm -- 26.66 in902.8 mb - 0.02 in0.5 mm 0.02 in0.5 mm
01:30 AM 56.0°F13.3°C 55.2°F12.9°C 97% Calm Calm -- 26.66 in902.8 mb - 0.03 in0.8 mm 0.03 in0.8 mm
01:35 AM 56.0°F13.3°C 55.2°F12.9°C 97% Calm Calm -- 26.66 in902.8 mb - 0.03 in0.8 mm 0.03 in0.8 mm
01:40 AM 56.0°F13.3°C 55.2°F12.9°C 97% Calm Calm -- 26.67 in903.2 mb - 0.03 in0.8 mm 0.03 in0.8 mm
01:45 AM 56.0°F13.3°C 55.2°F12.9°C 97% Calm Calm -- 26.67 in903.2 mb - 0.03 in0.8 mm 0.03 in0.8 mm
01:50 AM 56.0°F13.3°C 54.6°F12.6°C 95% Calm Calm -- 26.66 in902.8 mb - 0.04 in1.0 mm 0.04 in1.0 mm
01:55 AM 56.0°F13.3°C 54.9°F12.7°C 96% Calm Calm -- 26.66 in902.8 mb - 0.04 in1.0 mm 0.04 in1.0 mm
02:00 AM 56.0°F13.3°C 55.2°F12.9°C 97% Calm Calm -- 26.66 in902.8 mb - 0.03 in0.8 mm 0.04 in1.0 mm
02:10 AM 56.0°F13.3°C 55.2°F12.9°C 97% Calm Calm -- 26.67 in903.2 mb - 0.03 in0.8 mm 0.04 in1.0 mm
02:15 AM 56.0°F13.3°C 55.4°F13.0°C 98% Calm Calm -- 26.67 in903.2 mb - 0.03 in0.8 mm 0.04 in1.0 mm
02:20 AM 56.0°F13.3°C 55.4°F13.0°C 98% Calm Calm -- 26.66 in902.8 mb - 0.03 in0.8 mm 0.04 in1.0 mm
02:25 AM 56.0°F13.3°C 55.4°F13.0°C 98% Calm Calm -- 26.66 in902.8 mb - 0.02 in0.5 mm 0.04 in1.0 mm
02:30 AM 56.0°F13.3°C 55.4°F13.0°C 98% Calm Calm -- 26.66 in902.8 mb - 0.01 in0.3 mm 0.04 in1.0 mm
02:35 AM 55.0°F12.8°C 54.4°F12.4°C 98% Calm Calm -- 26.66 in902.8 mb - 0.01 in0.3 mm 0.04 in1.0 mm
02:40 AM 56.0°F13.3°C 55.4°F13.0°C 98% Calm Calm -- 26.65 in902.5 mb - 0.01 in0.3 mm 0.04 in1.0 mm
02:45 AM 55.0°F12.8°C 54.4°F12.4°C 98% Calm Calm -- 26.66 in902.8 mb - 0.01 in0.3 mm 0.04 in1.0 mm
02:50 AM 55.0°F12.8°C 54.4°F12.4°C 98% Calm Calm -- 26.65 in902.5 mb - 0.00 in0.0 mm 0.04 in1.0 mm
02:55 AM 55.0°F12.8°C 54.4°F12.4°C 98% Calm Calm -- 26.65 in902.5 mb - 0.00 in0.0 mm 0.04 in1.0 mm
03:00 AM 55.0°F12.8°C 54.4°F12.4°C 98% Calm Calm -- 26.65 in902.5 mb - 0.00 in0.0 mm 0.04 in1.0 mm
03:10 AM 55.0°F12.8°C 54.4°F12.4°C 98% Calm Calm -- 26.65 in902.5 mb - 0.01 in0.3 mm 0.05 in1.3 mm
03:15 AM 55.0°F12.8°C 54.4°F12.4°C 98% Calm Calm -- 26.65 in902.5 mb - 0.02 in0.5 mm 0.06 in1.5 mm
03:20 AM 55.0°F12.8°C 54.4°F12.4°C 98% Calm Calm -- 26.66 in902.8 mb - 0.02 in0.5 mm 0.06 in1.5 mm
03:25 AM 57.0°F13.9°C 54.7°F12.6°C 92% Calm Calm -- 26.65 in902.5 mb - 0.02 in0.5 mm 0.06 in1.5 mm
03:30 AM 55.0°F12.8°C 54.4°F12.4°C 98% Calm Calm -- 26.65 in902.5 mb - 0.04 in1.0 mm 0.08 in2.0 mm
03:35 AM 55.0°F12.8°C 54.4°F12.4°C 98% Calm Calm -- 26.65 in902.5 mb - 0.04 in1.0 mm 0.08 in2.0 mm
03:40 AM 55.0°F12.8°C 54.7°F12.6°C 99% Calm Calm -- 26.65 in902.5 mb - 0.04 in1.0 mm 0.08 in2.0 mm
03:45 AM 55.0°F12.8°C 54.7°F12.6°C 99% Calm Calm -- 26.64 in902.1 mb - 0.04 in1.0 mm 0.08 in2.0 mm
03:50 AM 55.0°F12.8°C 54.4°F12.4°C 98% Calm Calm -- 26.65 in902.5 mb - 0.04 in1.0 mm 0.08 in2.0 mm
03:55 AM 55.0°F12.8°C 54.7°F12.6°C 99% Calm Calm -- 26.64 in902.1 mb - 0.06 in1.5 mm 0.10 in2.5 mm
04:00 AM 55.0°F12.8°C 54.7°F12.6°C 99% Calm Calm -- 26.64 in902.1 mb - 0.06 in1.5 mm 0.10 in2.5 mm
04:10 AM 55.0°F12.8°C 54.7°F12.6°C 99% Calm Calm -- 26.64 in902.1 mb - 0.05 in1.3 mm 0.10 in2.5 mm
04:15 AM 55.0°F12.8°C 54.7°F12.6°C 99% Calm Calm -- 26.64 in902.1 mb - 0.05 in1.3 mm 0.10 in2.5 mm
04:20 AM 55.0°F12.8°C 54.7°F12.6°C 99% Calm Calm -- 26.65 in902.5 mb - 0.04 in1.0 mm 0.10 in2.5 mm
04:25 AM 55.0°F12.8°C 54.7°F12.6°C 99% Calm Calm 1.2 mph1.9 kmh 26.64 in902.1 mb - 0.04 in1.0 mm 0.10 in2.5 mm
04:30 AM 57.0°F13.9°C 55.9°F13.3°C 96% Calm Calm -- 26.66 in902.8 mb - 0.02 in0.5 mm 0.10 in2.5 mm
04:35 AM 55.0°F12.8°C 54.7°F12.6°C 99% Calm Calm -- 26.64 in902.1 mb - 0.07 in1.8 mm 0.15 in3.8 mm
04:40 AM 55.0°F12.8°C 54.7°F12.6°C 99% Calm Calm -- 26.65 in902.5 mb - 0.07 in1.8 mm 0.15 in3.8 mm
04:45 AM 55.0°F12.8°C 54.7°F12.6°C 99% Calm Calm -- 26.64 in902.1 mb - 0.07 in1.8 mm 0.15 in3.8 mm
04:50 AM 55.0°F12.8°C 54.7°F12.6°C 99% Calm Calm -- 26.64 in902.1 mb - 0.07 in1.8 mm 0.15 in3.8 mm
04:55 AM 55.0°F12.8°C 54.4°F12.4°C 98% Calm Calm -- 26.66 in902.8 mb - 0.05 in1.3 mm 0.15 in3.8 mm
05:00 AM 55.0°F12.8°C 54.7°F12.6°C 99% Calm Calm -- 26.64 in902.1 mb - 0.05 in1.3 mm 0.15 in3.8 mm
05:10 AM 54.0°F12.2°C 53.2°F11.8°C 97% Calm Calm -- 26.65 in902.5 mb - 0.06 in1.5 mm 0.16 in4.1 mm
05:15 AM 55.0°F12.8°C 54.7°F12.6°C 99% Calm Calm 1.2 mph1.9 kmh 26.64 in902.1 mb - 0.06 in1.5 mm 0.16 in4.1 mm
05:20 AM 55.0°F12.8°C 54.4°F12.4°C 98% Calm Calm -- 26.64 in902.1 mb - 0.07 in1.8 mm 0.17 in4.3 mm
05:25 AM 55.0°F12.8°C 54.4°F12.4°C 98% Calm Calm -- 26.64 in902.1 mb - 0.07 in1.8 mm 0.17 in4.3 mm
05:30 AM 55.0°F12.8°C 54.4°F12.4°C 98% Calm Calm -- 26.65 in902.5 mb - 0.07 in1.8 mm 0.17 in4.3 mm
05:35 AM 55.0°F12.8°C 54.4°F12.4°C 98% Calm Calm -- 26.65 in902.5 mb - 0.02 in0.5 mm 0.17 in4.3 mm
05:40 AM 55.0°F12.8°C 54.4°F12.4°C 98% Calm Calm -- 26.65 in902.5 mb - 0.02 in0.5 mm 0.17 in4.3 mm
05:45 AM 55.0°F12.8°C 54.4°F12.4°C 98% Calm Calm -- 26.65 in902.5 mb - 0.02 in0.5 mm 0.17 in4.3 mm
05:50 AM 55.0°F12.8°C 54.4°F12.4°C 98% Calm Calm -- 26.65 in902.5 mb - 0.03 in0.8 mm 0.18 in4.6 mm
05:55 AM 55.0°F12.8°C 54.7°F12.6°C 99% Calm Calm -- 26.64 in902.1 mb - 0.03 in0.8 mm 0.18 in4.6 mm
06:00 AM 55.0°F12.8°C 54.4°F12.4°C 98% Calm Calm 1.2 mph1.9 kmh 26.65 in902.5 mb - 0.03 in0.8 mm 0.18 in4.6 mm
06:10 AM 55.0°F12.8°C 54.7°F12.6°C 99% Calm Calm -- 26.64 in902.1 mb - 0.02 in0.5 mm 0.18 in4.6 mm
06:15 AM 55.0°F12.8°C 54.7°F12.6°C 99% Calm Calm -- 26.64 in902.1 mb - 0.02 in0.5 mm 0.18 in4.6 mm
06:20 AM 54.3°F12.4°C 54.0°F12.2°C 99% Calm Calm -- 26.63 in901.8 mb - 0.01 in0.3 mm 0.18 in4.6 mm
06:25 AM 54.0°F12.2°C 53.7°F12.1°C 99% Calm Calm -- 26.63 in901.8 mb - 0.01 in0.3 mm 0.18 in4.6 mm
06:30 AM 54.0°F12.2°C 53.7°F12.1°C 99% Calm Calm -- 26.63 in901.8 mb - 0.01 in0.3 mm 0.18 in4.6 mm
06:35 AM 54.0°F12.2°C 53.4°F11.9°C 98% Calm Calm -- 26.63 in901.8 mb - 0.01 in0.3 mm 0.18 in4.6 mm
06:40 AM 54.0°F12.2°C 53.7°F12.1°C 99% Calm Calm -- 26.64 in902.1 mb - 0.01 in0.3 mm 0.18 in4.6 mm
06:45 AM 54.0°F12.2°C 53.7°F12.1°C 99% Calm Calm -- 26.64 in902.1 mb - 0.01 in0.3 mm 0.18 in4.6 mm
06:50 AM 54.0°F12.2°C 53.7°F12.1°C 99% Calm Calm -- 26.65 in902.5 mb - 0.00 in0.0 mm 0.18 in4.6 mm
06:55 AM 54.0°F12.2°C 53.7°F12.1°C 99% Calm Calm -- 26.65 in902.5 mb - 0.00 in0.0 mm 0.18 in4.6 mm
07:00 AM 54.0°F12.2°C 53.7°F12.1°C 99% Calm Calm -- 26.64 in902.1 mb - 0.00 in0.0 mm 0.18 in4.6 mm
07:10 AM 54.0°F12.2°C 53.7°F12.1°C 99% Calm Calm -- 26.64 in902.1 mb - 0.00 in0.0 mm 0.18 in4.6 mm
07:15 AM 54.0°F12.2°C 53.7°F12.1°C 99% Calm Calm -- 26.64 in902.1 mb - 0.00 in0.0 mm 0.18 in4.6 mm
07:20 AM 54.0°F12.2°C 53.7°F12.1°C 99% Calm Calm -- 26.65 in902.5 mb - 0.00 in0.0 mm 0.18 in4.6 mm
07:25 AM 54.0°F12.2°C 53.7°F12.1°C 99% Calm Calm -- 26.64 in902.1 mb - 0.00 in0.0 mm 0.18 in4.6 mm
07:30 AM 54.0°F12.2°C 53.7°F12.1°C 99% Calm Calm -- 26.64 in902.1 mb - 0.02 in0.5 mm 0.20 in5.1 mm
07:35 AM 54.0°F12.2°C 53.7°F12.1°C 99% Calm Calm -- 26.63 in901.8 mb - 0.03 in0.8 mm 0.21 in5.3 mm
07:40 AM 54.0°F12.2°C 53.7°F12.1°C 99% Calm Calm -- 26.63 in901.8 mb - 0.03 in0.8 mm 0.21 in5.3 mm
07:45 AM 55.0°F12.8°C 54.7°F12.6°C 99% Calm Calm -- 26.62 in901.5 mb - 0.03 in0.8 mm 0.21 in5.3 mm
07:50 AM 55.0°F12.8°C 54.7°F12.6°C 99% Calm Calm -- 26.62 in901.5 mb - 0.03 in0.8 mm 0.21 in5.3 mm
07:55 AM 55.0°F12.8°C 54.7°F12.6°C 99% Calm Calm -- 26.62 in901.5 mb - 0.03 in0.8 mm 0.21 in5.3 mm
08:00 AM 55.0°F12.8°C 54.7°F12.6°C 99% Calm Calm -- 26.62 in901.5 mb - 0.03 in0.8 mm 0.21 in5.3 mm
08:10 AM 55.0°F12.8°C 54.7°F12.6°C 99% Calm Calm -- 26.62 in901.5 mb - 0.03 in0.8 mm 0.21 in5.3 mm
08:15 AM 55.0°F12.8°C 54.7°F12.6°C 99% Calm Calm -- 26.62 in901.5 mb - 0.04 in1.0 mm 0.22 in5.6 mm
08:20 AM 55.0°F12.8°C 54.7°F12.6°C 99% Calm Calm -- 26.62 in901.5 mb - 0.05 in1.3 mm 0.23 in5.8 mm
08:25 AM 55.0°F12.8°C 54.7°F12.6°C 99% Calm Calm -- 26.63 in901.8 mb - 0.07 in1.8 mm 0.25 in6.4 mm
08:30 AM 55.0°F12.8°C 54.7°F12.6°C 99% Calm Calm -- 26.62 in901.5 mb - 0.06 in1.5 mm 0.26 in6.6 mm
08:35 AM 55.0°F12.8°C 54.7°F12.6°C 99% Calm Calm -- 26.62 in901.5 mb - 0.06 in1.5 mm 0.27 in6.9 mm
08:40 AM 55.0°F12.8°C 54.7°F12.6°C 99% Calm Calm -- 26.62 in901.5 mb - 0.06 in1.5 mm 0.27 in6.9 mm
08:45 AM 55.0°F12.8°C 54.7°F12.6°C 99% Calm Calm -- 26.62 in901.5 mb - 0.06 in1.5 mm 0.27 in6.9 mm
08:50 AM 55.0°F12.8°C 54.7°F12.6°C 99% Calm Calm -- 26.62 in901.5 mb - 0.06 in1.5 mm 0.27 in6.9 mm
08:55 AM 55.0°F12.8°C 54.7°F12.6°C 99% Calm Calm -- 26.62 in901.5 mb - 0.06 in1.5 mm 0.27 in6.9 mm
09:00 AM 55.0°F12.8°C 54.7°F12.6°C 99% Calm Calm -- 26.62 in901.5 mb - 0.06 in1.5 mm 0.27 in6.9 mm
09:10 AM 55.0°F12.8°C 54.7°F12.6°C 99% Calm Calm -- 26.63 in901.8 mb - 0.06 in1.5 mm 0.27 in6.9 mm
09:15 AM 55.0°F12.8°C 54.7°F12.6°C 99% Calm Calm -- 26.63 in901.8 mb - 0.06 in1.5 mm 0.28 in7.1 mm
09:20 AM 55.0°F12.8°C 54.7°F12.6°C 99% Calm Calm -- 26.64 in902.1 mb - 0.05 in1.3 mm 0.28 in7.1 mm
09:25 AM 55.0°F12.8°C 54.7°F12.6°C 99% Calm Calm -- 26.64 in902.1 mb - 0.04 in1.0 mm 0.29 in7.4 mm
09:30 AM 55.0°F12.8°C 54.7°F12.6°C 99% Calm Calm -- 26.65 in902.5 mb - 0.05 in1.3 mm 0.31 in7.9 mm
09:35 AM 55.0°F12.8°C 54.7°F12.6°C 99% Calm Calm -- 26.65 in902.5 mb - 0.04 in1.0 mm 0.31 in7.9 mm
09:40 AM 55.0°F12.8°C 54.7°F12.6°C 99% Calm Calm -- 26.65 in902.5 mb - 0.04 in1.0 mm 0.31 in7.9 mm
09:45 AM 55.0°F12.8°C 54.7°F12.6°C 99% Calm Calm -- 26.65 in902.5 mb - 0.05 in1.3 mm 0.32 in8.1 mm
09:50 AM 55.0°F12.8°C 54.7°F12.6°C 99% Calm Calm -- 26.65 in902.5 mb - 0.07 in1.8 mm 0.34 in8.6 mm
09:55 AM 55.0°F12.8°C 54.7°F12.6°C 99% Calm Calm -- 26.65 in902.5 mb - 0.07 in1.8 mm 0.34 in8.6 mm
10:00 AM 55.0°F12.8°C 54.7°F12.6°C 99% Calm Calm -- 26.65 in902.5 mb - 0.12 in3.0 mm 0.39 in9.9 mm
10:10 AM 55.0°F12.8°C 54.7°F12.6°C 99% Calm Calm -- 26.65 in902.5 mb - 0.15 in3.8 mm 0.42 in10.7 mm
10:15 AM 54.0°F12.2°C 53.7°F12.1°C 99% Calm Calm -- 26.65 in902.5 mb - 0.16 in4.1 mm 0.44 in11.2 mm
10:20 AM 54.0°F12.2°C 53.7°F12.1°C 99% 1.2 mph N1.9 kmh N 1.2 mph1.9 kmh 26.66 in902.8 mb - 0.17 in4.3 mm 0.45 in11.4 mm
10:25 AM 55.0°F12.8°C 54.7°F12.6°C 99% 1.2 mph N1.9 kmh N 2.3 mph3.7 kmh 26.66 in902.8 mb - 0.16 in4.1 mm 0.45 in11.4 mm
10:30 AM 55.0°F12.8°C 54.7°F12.6°C 99% 2.3 mph ENE3.7 kmh ENE 2.3 mph3.7 kmh 26.67 in903.2 mb - 0.16 in4.1 mm 0.45 in11.4 mm
10:35 AM 54.0°F12.2°C 53.7°F12.1°C 99% Calm Calm -- 26.69 in903.8 mb - 0.15 in3.8 mm 0.46 in11.7 mm
10:40 AM 58.0°F14.4°C 56.3°F13.5°C 94% Calm Calm -- 26.65 in902.5 mb - 0.15 in3.8 mm 0.46 in11.7 mm
10:45 AM 55.0°F12.8°C 54.7°F12.6°C 99% Calm Calm -- 26.68 in903.5 mb - 0.46 in11.7 mm 0.78 in19.8 mm
10:50 AM 55.0°F12.8°C 54.7°F12.6°C 99% Calm Calm -- 26.68 in903.5 mb - 0.47 in11.9 mm 0.81 in20.6 mm
10:55 AM 55.0°F12.8°C 54.7°F12.6°C 99% Calm Calm -- 26.69 in903.8 mb - 0.51 in13.0 mm 0.85 in21.6 mm
11:00 AM 55.0°F12.8°C 54.7°F12.6°C 99% Calm Calm -- 26.68 in903.5 mb - 0.47 in11.9 mm 0.86 in21.8 mm
11:10 AM 55.0°F12.8°C 54.7°F12.6°C 99% Calm Calm -- 26.69 in903.8 mb - 0.48 in12.2 mm 0.90 in22.9 mm
11:15 AM 55.0°F12.8°C 54.7°F12.6°C 99% Calm Calm -- 26.70 in904.2 mb - 0.46 in11.7 mm 0.90 in22.9 mm
11:20 AM 55.0°F12.8°C 54.7°F12.6°C 99% Calm Calm -- 26.70 in904.2 mb - 0.49 in12.4 mm 0.93 in23.6 mm
11:25 AM 55.0°F12.8°C 54.7°F12.6°C 99% Calm Calm -- 26.69 in903.8 mb - 0.49 in12.4 mm 0.94 in23.9 mm
11:30 AM 55.0°F12.8°C 54.7°F12.6°C 99% Calm Calm -- 26.70 in904.2 mb - 0.50 in12.7 mm 0.95 in24.1 mm
11:35 AM 55.0°F12.8°C 54.7°F12.6°C 99% Calm Calm -- 26.70 in904.2 mb - 0.50 in12.7 mm 0.96 in24.4 mm
11:40 AM 55.0°F12.8°C 54.7°F12.6°C 99% Calm Calm -- 26.71 in904.5 mb - 0.52 in13.2 mm 0.98 in24.9 mm
11:45 AM 55.0°F12.8°C 54.7°F12.6°C 99% Calm Calm -- 26.71 in904.5 mb - 0.23 in5.8 mm 1.01 in25.7 mm
11:50 AM 55.0°F12.8°C 54.7°F12.6°C 99% Calm Calm -- 26.72 in904.8 mb - 0.23 in5.8 mm 1.04 in26.4 mm
11:55 AM 55.0°F12.8°C 54.7°F12.6°C 99% Calm Calm -- 26.72 in904.8 mb - 0.22 in5.6 mm 1.07 in27.2 mm
12:00 PM 55.0°F12.8°C 54.7°F12.6°C 99% Calm Calm -- 26.72 in904.8 mb - 0.24 in6.1 mm 1.10 in27.9 mm
12:10 PM 55.0°F12.8°C 54.7°F12.6°C 99% Calm Calm -- 26.72 in904.8 mb - 0.26 in6.6 mm 1.13 in28.7 mm
12:15 PM 54.0°F12.2°C 53.7°F12.1°C 99% Calm Calm -- 26.73 in905.2 mb - 0.26 in6.6 mm 1.16 in29.5 mm
12:20 PM 53.0°F11.7°C 52.7°F11.5°C 99% Calm Calm -- 26.73 in905.2 mb - 0.27 in6.9 mm 1.20 in30.5 mm
12:25 PM 53.0°F11.7°C 52.7°F11.5°C 99% Calm Calm -- 26.73 in905.2 mb - 0.29 in7.4 mm 1.23 in31.2 mm
12:30 PM 52.0°F11.1°C 51.7°F10.9°C 99% Calm Calm -- 26.73 in905.2 mb - 0.30 in7.6 mm 1.25 in31.8 mm
12:35 PM 53.0°F11.7°C 52.7°F11.5°C 99% Calm Calm -- 26.73 in905.2 mb - 0.32 in8.1 mm 1.28 in32.5 mm
12:40 PM 52.0°F11.1°C 51.7°F10.9°C 99% Calm Calm -- 26.73 in905.2 mb - 0.32 in8.1 mm 1.30 in33.0 mm
12:45 PM 52.0°F11.1°C 51.7°F10.9°C 99% Calm Calm -- 26.73 in905.2 mb - 0.32 in8.1 mm 1.33 in33.8 mm
12:50 PM 52.0°F11.1°C 51.7°F10.9°C 99% Calm Calm -- 26.73 in905.2 mb - 0.29 in7.4 mm 1.33 in33.8 mm
12:55 PM 52.0°F11.1°C 51.7°F10.9°C 99% Calm Calm -- 26.72 in904.8 mb - 0.32 in8.1 mm 1.36 in34.5 mm
01:00 PM 52.0°F11.1°C 51.7°F10.9°C 99% Calm Calm -- 26.72 in904.8 mb - 0.32 in8.1 mm 1.39 in35.3 mm
01:10 PM 52.0°F11.1°C 51.7°F10.9°C 99% Calm Calm -- 26.71 in904.5 mb - 0.29 in7.4 mm 1.42 in36.1 mm
01:15 PM 52.0°F11.1°C 51.7°F10.9°C 99% Calm Calm -- 26.70 in904.2 mb - 0.26 in6.6 mm 1.42 in36.1 mm
01:20 PM 52.0°F11.1°C 51.7°F10.9°C 99% Calm Calm -- 26.69 in903.8 mb - 0.23 in5.8 mm 1.43 in36.3 mm
01:25 PM 52.0°F11.1°C 51.7°F10.9°C 99% Calm Calm -- 26.69 in903.8 mb - 0.20 in5.1 mm 1.43 in36.3 mm
01:30 PM 52.0°F11.1°C 51.7°F10.9°C 99% Calm Calm -- 26.68 in903.5 mb - 0.18 in4.6 mm 1.43 in36.3 mm
01:35 PM 53.0°F11.7°C 52.7°F11.5°C 99% Calm Calm -- 26.67 in903.2 mb - 0.15 in3.8 mm 1.43 in36.3 mm
01:40 PM 53.0°F11.7°C 52.7°F11.5°C 99% Calm Calm -- 26.68 in903.5 mb - 0.13 in3.3 mm 1.43 in36.3 mm
01:45 PM 54.0°F12.2°C 53.7°F12.1°C 99% Calm Calm -- 26.67 in903.2 mb - 0.13 in3.3 mm 1.43 in36.3 mm
01:50 PM 55.0°F12.8°C 54.7°F12.6°C 99% Calm Calm -- 26.67 in903.2 mb - 0.10 in2.5 mm 1.43 in36.3 mm
01:55 PM 55.0°F12.8°C 54.7°F12.6°C 99% Calm Calm -- 26.66 in902.8 mb - 0.07 in1.8 mm 1.43 in36.3 mm
02:00 PM 55.0°F12.8°C 54.7°F12.6°C 99% Calm Calm -- 26.65 in902.5 mb - 0.05 in1.3 mm 1.44 in36.6 mm
02:10 PM 54.0°F12.2°C 53.7°F12.1°C 99% Calm Calm 1.2 mph1.9 kmh 26.65 in902.5 mb - 0.02 in0.5 mm 1.44 in36.6 mm
02:15 PM 55.0°F12.8°C 54.7°F12.6°C 99% Calm Calm -- 26.64 in902.1 mb - 0.02 in0.5 mm 1.44 in36.6 mm
02:20 PM 55.6°F13.1°C 55.3°F12.9°C 99% Calm Calm -- 26.65 in902.5 mb - 0.01 in0.3 mm 1.44 in36.6 mm
02:25 PM 56.1°F13.4°C 55.8°F13.2°C 99% Calm Calm -- 26.65 in902.5 mb - 0.01 in0.3 mm 1.44 in36.6 mm
02:30 PM 57.0°F13.9°C 56.7°F13.7°C 99% Calm Calm -- 26.64 in902.1 mb - 0.01 in0.3 mm 1.44 in36.6 mm
02:35 PM 58.0°F14.4°C 57.7°F14.3°C 99% Calm Calm -- 26.63 in901.8 mb - 0.01 in0.3 mm 1.44 in36.6 mm
02:40 PM 58.0°F14.4°C 57.7°F14.3°C 99% Calm Calm -- 26.63 in901.8 mb - 0.01 in0.3 mm 1.44 in36.6 mm
02:45 PM 56.0°F13.3°C 55.2°F12.9°C 97% Calm Calm -- 26.62 in901.5 mb - 0.01 in0.3 mm 1.44 in36.6 mm
02:50 PM 56.0°F13.3°C 54.3°F12.4°C 94% Calm Calm -- 26.62 in901.5 mb - 0.01 in0.3 mm 1.44 in36.6 mm
02:55 PM 56.0°F13.3°C 51.6°F10.9°C 85% Calm Calm -- 26.62 in901.5 mb - 0.01 in0.3 mm 1.44 in36.6 mm
03:00 PM 57.0°F13.9°C 53.5°F11.9°C 88% Calm Calm -- 26.61 in901.1 mb - 0.00 in0.0 mm 1.44 in36.6 mm
03:10 PM 57.0°F13.9°C 54.1°F12.3°C 90% Calm Calm 1.2 mph1.9 kmh 26.61 in901.1 mb - 0.00 in0.0 mm 1.44 in36.6 mm
03:15 PM 57.0°F13.9°C 53.8°F12.1°C 89% 1.2 mph ESE1.9 kmh ESE 1.2 mph1.9 kmh 26.60 in900.8 mb - 0.00 in0.0 mm 1.44 in36.6 mm
03:20 PM 59.0°F15.0°C 55.4°F13.0°C 88% Calm Calm -- 26.60 in900.8 mb - 0.00 in0.0 mm 1.44 in36.6 mm
03:25 PM 61.0°F16.1°C 55.5°F13.1°C 82% Calm Calm -- 26.60 in900.8 mb - 0.00 in0.0 mm 1.44 in36.6 mm
03:30 PM 62.0°F16.7°C 56.4°F13.6°C 82% Calm Calm -- 26.60 in900.8 mb - 0.00 in0.0 mm 1.44 in36.6 mm
03:35 PM 63.0°F17.2°C 56.7°F13.7°C 80% Calm Calm -- 26.61 in901.1 mb - 0.00 in0.0 mm 1.44 in36.6 mm
03:40 PM 65.0°F18.3°C 53.4°F11.9°C 66% Calm Calm -- 26.59 in900.4 mb - 0.00 in0.0 mm 1.44 in36.6 mm
03:45 PM 65.0°F18.3°C 56.1°F13.4°C 73% 1.2 mph NE1.9 kmh NE 2.3 mph3.7 kmh 26.60 in900.8 mb - 0.00 in0.0 mm 1.44 in36.6 mm
03:50 PM 64.0°F17.8°C 53.6°F12.0°C 69% 2.3 mph NW3.7 kmh NW 3.5 mph5.6 kmh 26.60 in900.8 mb - 0.00 in0.0 mm 1.44 in36.6 mm
03:55 PM 61.7°F16.5°C 51.5°F10.8°C 69% Calm Calm 3.5 mph5.6 kmh 26.60 in900.8 mb - 0.00 in0.0 mm 1.44 in36.6 mm
04:00 PM 61.5°F16.4°C 55.2°F12.9°C 80% Calm Calm 2.3 mph3.7 kmh 26.60 in900.8 mb - 0.00 in0.0 mm 1.44 in36.6 mm
04:10 PM 62.0°F16.7°C 54.7°F12.6°C 77% 1.2 mph NW1.9 kmh NW 2.3 mph3.7 kmh 26.60 in900.8 mb - 0.00 in0.0 mm 1.44 in36.6 mm
04:15 PM 62.0°F16.7°C 54.3°F12.4°C 76% 1.2 mph NE1.9 kmh NE 1.2 mph1.9 kmh 26.59 in900.4 mb - 0.00 in0.0 mm 1.44 in36.6 mm
04:20 PM 61.0°F16.1°C 53.7°F12.1°C 77% 1.2 mph W1.9 kmh W 1.2 mph1.9 kmh 26.59 in900.4 mb - 0.00 in0.0 mm 1.44 in36.6 mm
04:25 PM 61.0°F16.1°C 53.0°F11.7°C 75% Calm Calm -- 26.58 in900.1 mb - 0.00 in0.0 mm 1.44 in36.6 mm
04:30 PM 60.0°F15.6°C 52.4°F11.3°C 76% Calm Calm -- 26.59 in900.4 mb - 0.00 in0.0 mm 1.44 in36.6 mm
04:35 PM 60.0°F15.6°C 53.1°F11.7°C 78% Calm Calm -- 26.58 in900.1 mb - 0.00 in0.0 mm 1.44 in36.6 mm
04:40 PM 61.0°F16.1°C 53.7°F12.1°C 77% Calm Calm -- 26.59 in900.4 mb - 0.00 in0.0 mm 1.44 in36.6 mm
04:45 PM 61.0°F16.1°C 53.7°F12.1°C 77% Calm Calm -- 26.59 in900.4 mb - 0.00 in0.0 mm 1.44 in36.6 mm
04:50 PM 61.0°F16.1°C 53.7°F12.1°C 77% Calm Calm -- 26.59 in900.4 mb - 0.00 in0.0 mm 1.44 in36.6 mm
04:55 PM 62.0°F16.7°C 52.9°F11.6°C 72% Calm Calm -- 26.58 in900.1 mb - 0.00 in0.0 mm 1.44 in36.6 mm
05:00 PM 62.0°F16.7°C 53.2°F11.8°C 73% Calm Calm -- 26.57 in899.8 mb - 0.00 in0.0 mm 1.44 in36.6 mm
05:10 PM 63.0°F17.2°C 53.8°F12.1°C 72% Calm Calm -- 26.58 in900.1 mb - 0.00 in0.0 mm 1.44 in36.6 mm
05:15 PM 62.0°F16.7°C 54.3°F12.4°C 76% Calm Calm -- 26.57 in899.8 mb - 0.00 in0.0 mm 1.44 in36.6 mm
05:20 PM 62.0°F16.7°C 53.2°F11.8°C 73% Calm Calm -- 26.57 in899.8 mb - 0.00 in0.0 mm 1.44 in36.6 mm
05:25 PM 62.0°F16.7°C 54.7°F12.6°C 77% Calm Calm -- 26.57 in899.8 mb - 0.00 in0.0 mm 1.44 in36.6 mm
05:30 PM 62.0°F16.7°C 54.3°F12.4°C 76% Calm Calm -- 26.57 in899.8 mb - 0.00 in0.0 mm 1.44 in36.6 mm
05:35 PM 62.0°F16.7°C 54.3°F12.4°C 76% Calm Calm -- 26.57 in899.8 mb - 0.00 in0.0 mm 1.44 in36.6 mm
05:40 PM 62.0°F16.7°C 54.0°F12.2°C 75% Calm Calm -- 26.57 in899.8 mb - 0.00 in0.0 mm 1.44 in36.6 mm
05:45 PM 62.0°F16.7°C 54.7°F12.6°C 77% Calm Calm -- 26.57 in899.8 mb - 0.00 in0.0 mm 1.44 in36.6 mm
05:50 PM 62.0°F16.7°C 54.0°F12.2°C 75% Calm Calm -- 26.58 in900.1 mb - 0.00 in0.0 mm 1.44 in36.6 mm
05:55 PM 61.0°F16.1°C 52.7°F11.5°C 74% 1.2 mph N1.9 kmh N 1.2 mph1.9 kmh 26.57 in899.8 mb - 0.00 in0.0 mm 1.44 in36.6 mm
06:00 PM 61.0°F16.1°C 52.3°F11.3°C 73% Calm Calm -- 26.57 in899.8 mb - 0.00 in0.0 mm 1.44 in36.6 mm
06:10 PM 60.0°F15.6°C 54.2°F12.3°C 81% Calm Calm -- 26.57 in899.8 mb - 0.00 in0.0 mm 1.44 in36.6 mm
06:15 PM 60.0°F15.6°C 54.2°F12.3°C 81% Calm Calm -- 26.57 in899.8 mb - 0.00 in0.0 mm 1.44 in36.6 mm
06:20 PM 60.0°F15.6°C 54.2°F12.3°C 81% Calm Calm -- 26.57 in899.8 mb - 0.00 in0.0 mm 1.44 in36.6 mm
06:25 PM 63.0°F17.2°C 53.8°F12.1°C 72% Calm Calm -- 26.58 in900.1 mb - 0.00 in0.0 mm 1.44 in36.6 mm
06:30 PM 59.0°F15.0°C 53.2°F11.8°C 81% Calm Calm -- 26.57 in899.8 mb - 0.00 in0.0 mm 1.44 in36.6 mm
06:35 PM 59.0°F15.0°C 54.5°F12.5°C 85% Calm Calm -- 26.57 in899.8 mb - 0.00 in0.0 mm 1.44 in36.6 mm
06:40 PM 58.0°F14.4°C 53.5°F11.9°C 85% Calm Calm -- 26.57 in899.8 mb - 0.00 in0.0 mm 1.44 in36.6 mm
06:45 PM 58.0°F14.4°C 53.8°F12.1°C 86% Calm Calm -- 26.58 in900.1 mb - 0.00 in0.0 mm 1.44 in36.6 mm
06:50 PM 57.0°F13.9°C 53.2°F11.8°C 87% Calm Calm -- 26.58 in900.1 mb - 0.00 in0.0 mm 1.44 in36.6 mm
06:55 PM 55.7°F13.2°C 51.9°F11.1°C 87% Calm Calm -- 26.61 in901.1 mb - 0.00 in0.0 mm 1.44 in36.6 mm
07:00 PM 55.2°F12.9°C 55.0°F12.8°C 99% Calm Calm -- 26.61 in901.1 mb - 0.86 in21.8 mm 2.30 in58.4 mm
07:10 PM 57.0°F13.9°C 54.1°F12.3°C 90% Calm Calm -- 26.58 in900.1 mb - 0.86 in21.8 mm 2.30 in58.4 mm
07:15 PM 56.0°F13.3°C 52.5°F11.4°C 88% Calm Calm -- 26.58 in900.1 mb - 0.86 in21.8 mm 2.30 in58.4 mm
07:20 PM 56.0°F13.3°C 53.1°F11.7°C 90% Calm Calm -- 26.58 in900.1 mb - 0.86 in21.8 mm 2.30 in58.4 mm
07:25 PM 56.0°F13.3°C 53.1°F11.7°C 90% Calm Calm -- 26.59 in900.4 mb - 0.86 in21.8 mm 2.30 in58.4 mm
07:30 PM 56.0°F13.3°C 53.7°F12.1°C 92% Calm Calm -- 26.58 in900.1 mb - 0.86 in21.8 mm 2.30 in58.4 mm
07:35 PM 56.0°F13.3°C 53.4°F11.9°C 91% Calm Calm -- 26.59 in900.4 mb - 0.86 in21.8 mm 2.30 in58.4 mm
07:40 PM 56.0°F13.3°C 53.1°F11.7°C 90% Calm Calm -- 26.59 in900.4 mb - 0.86 in21.8 mm 2.30 in58.4 mm
07:45 PM 56.0°F13.3°C 53.1°F11.7°C 90% Calm Calm -- 26.59 in900.4 mb - 0.86 in21.8 mm 2.30 in58.4 mm
07:50 PM 56.0°F13.3°C 52.8°F11.6°C 89% Calm Calm -- 26.59 in900.4 mb - 0.86 in21.8 mm 2.30 in58.4 mm
07:55 PM 56.0°F13.3°C 53.1°F11.7°C 90% Calm Calm -- 26.59 in900.4 mb - 0.86 in21.8 mm 2.30 in58.4 mm
08:00 PM 56.0°F13.3°C 53.1°F11.7°C 90% Calm Calm -- 26.59 in900.4 mb - 0.86 in21.8 mm 2.30 in58.4 mm
08:10 PM 55.0°F12.8°C 52.4°F11.3°C 91% Calm Calm -- 26.60 in900.8 mb - 0.00 in0.0 mm 2.30 in58.4 mm
08:15 PM 55.0°F12.8°C 52.7°F11.5°C 92% Calm Calm -- 26.60 in900.8 mb - 0.00 in0.0 mm 2.30 in58.4 mm
08:20 PM 54.0°F12.2°C 51.7°F10.9°C 92% Calm Calm -- 26.59 in900.4 mb - 0.00 in0.0 mm 2.30 in58.4 mm
08:25 PM 54.0°F12.2°C 52.0°F11.1°C 93% Calm Calm -- 26.60 in900.8 mb - 0.00 in0.0 mm 2.30 in58.4 mm
08:30 PM 54.0°F12.2°C 52.0°F11.1°C 93% Calm Calm -- 26.60 in900.8 mb - 0.00 in0.0 mm 2.30 in58.4 mm
08:35 PM 54.0°F12.2°C 52.0°F11.1°C 93% Calm Calm -- 26.60 in900.8 mb - 0.00 in0.0 mm 2.30 in58.4 mm
08:40 PM 54.0°F12.2°C 51.7°F10.9°C 92% Calm Calm -- 26.60 in900.8 mb - 0.00 in0.0 mm 2.30 in58.4 mm
08:45 PM 54.0°F12.2°C 52.0°F11.1°C 93% Calm Calm -- 26.60 in900.8 mb - 0.00 in0.0 mm 2.30 in58.4 mm
08:50 PM 56.0°F13.3°C 53.1°F11.7°C 90% Calm Calm -- 26.59 in900.4 mb - 0.00 in0.0 mm 2.30 in58.4 mm
08:55 PM 54.0°F12.2°C 52.3°F11.3°C 94% Calm Calm -- 26.61 in901.1 mb - 0.00 in0.0 mm 2.30 in58.4 mm
09:00 PM 54.0°F12.2°C 52.3°F11.3°C 94% Calm Calm -- 26.61 in901.1 mb - 0.00 in0.0 mm 2.30 in58.4 mm
09:10 PM 54.0°F12.2°C 52.3°F11.3°C 94% Calm Calm -- 26.61 in901.1 mb - 0.00 in0.0 mm 2.30 in58.4 mm
09:15 PM 54.0°F12.2°C 52.3°F11.3°C 94% Calm Calm -- 26.60 in900.8 mb - 0.00 in0.0 mm 2.30 in58.4 mm
09:20 PM 54.0°F12.2°C 52.3°F11.3°C 94% Calm Calm -- 26.61 in901.1 mb - 0.00 in0.0 mm 2.30 in58.4 mm
09:25 PM 54.0°F12.2°C 52.3°F11.3°C 94% Calm Calm -- 26.61 in901.1 mb - 0.00 in0.0 mm 2.30 in58.4 mm
09:30 PM 54.0°F12.2°C 52.3°F11.3°C 94% Calm Calm -- 26.61 in901.1 mb - 0.00 in0.0 mm 2.30 in58.4 mm
09:35 PM 54.0°F12.2°C 52.0°F11.1°C 93% Calm Calm -- 26.60 in900.8 mb - 0.00 in0.0 mm 2.30 in58.4 mm
09:40 PM 54.0°F12.2°C 52.0°F11.1°C 93% Calm Calm -- 26.61 in901.1 mb - 0.00 in0.0 mm 2.30 in58.4 mm
09:45 PM 54.0°F12.2°C 52.3°F11.3°C 94% Calm Calm -- 26.61 in901.1 mb - 0.00 in0.0 mm 2.30 in58.4 mm
09:50 PM 54.0°F12.2°C 52.3°F11.3°C 94% Calm Calm -- 26.61 in901.1 mb - 0.00 in0.0 mm 2.30 in58.4 mm
09:55 PM 54.0°F12.2°C 52.3°F11.3°C 94% Calm Calm -- 26.61 in901.1 mb - 0.00 in0.0 mm 2.30 in58.4 mm
10:00 PM 54.0°F12.2°C 52.3°F11.3°C 94% Calm Calm -- 26.61 in901.1 mb - 0.00 in0.0 mm 2.30 in58.4 mm
10:10 PM 54.0°F12.2°C 52.3°F11.3°C 94% Calm Calm -- 26.61 in901.1 mb - 0.00 in0.0 mm 2.30 in58.4 mm
10:15 PM 54.0°F12.2°C 52.0°F11.1°C 93% Calm Calm -- 26.62 in901.5 mb - 0.00 in0.0 mm 2.30 in58.4 mm
10:20 PM 54.0°F12.2°C 52.3°F11.3°C 94% Calm Calm -- 26.62 in901.5 mb - 0.00 in0.0 mm 2.30 in58.4 mm
10:25 PM 54.0°F12.2°C 52.3°F11.3°C 94% Calm Calm -- 26.61 in901.1 mb - 0.00 in0.0 mm 2.30 in58.4 mm
10:30 PM 54.0°F12.2°C 52.6°F11.4°C 95% Calm Calm -- 26.61 in901.1 mb - 0.00 in0.0 mm 2.30 in58.4 mm
10:35 PM 57.0°F13.9°C 54.4°F12.4°C 91% Calm Calm -- 26.64 in902.1 mb - 0.00 in0.0 mm 2.30 in58.4 mm
10:40 PM 54.0°F12.2°C 52.3°F11.3°C 94% Calm Calm -- 26.62 in901.5 mb - 0.98 in24.9 mm 3.28 in83.3 mm
10:45 PM 53.0°F11.7°C 51.6°F10.9°C 95% Calm Calm -- 26.61 in901.1 mb - 0.98 in24.9 mm 3.28 in83.3 mm
10:50 PM 53.0°F11.7°C 51.3°F10.7°C 94% Calm Calm -- 26.61 in901.1 mb - 0.98 in24.9 mm 3.28 in83.3 mm
10:55 PM 53.0°F11.7°C 51.3°F10.7°C 94% Calm Calm -- 26.61 in901.1 mb - 0.98 in24.9 mm 3.28 in83.3 mm
11:00 PM 53.0°F11.7°C 51.3°F10.7°C 94% Calm Calm -- 26.61 in901.1 mb - 0.98 in24.9 mm 31.22 in793.0 mm
11:10 PM 53.0°F11.7°C 51.6°F10.9°C 95% Calm Calm -- 26.60 in900.8 mb - 0.98 in24.9 mm 32.20 in817.9 mm
11:15 PM 52.0°F11.1°C 50.3°F10.2°C 94% Calm Calm -- 26.61 in901.1 mb - 0.98 in24.9 mm 33.18 in842.8 mm
11:20 PM 52.0°F11.1°C 50.3°F10.2°C 94% Calm Calm -- 26.61 in901.1 mb - 0.98 in24.9 mm 34.16 in867.7 mm
11:25 PM 51.0°F10.6°C 49.3°F9.6°C 94% Calm Calm -- 26.62 in901.5 mb - 0.98 in24.9 mm 35.14 in892.6 mm
11:30 PM 51.0°F10.6°C 49.6°F9.8°C 95% Calm Calm -- 26.61 in901.1 mb - 0.98 in24.9 mm 36.12 in917.4 mm
11:35 PM 51.0°F10.6°C 49.3°F9.6°C 94% Calm Calm -- 26.62 in901.5 mb - 0.98 in24.9 mm 37.10 in942.3 mm
11:40 PM 54.0°F12.2°C 52.3°F11.3°C 94% Calm Calm -- 26.61 in901.1 mb - 0.00 in0.0 mm 37.10 in942.3 mm
11:45 PM 54.0°F12.2°C 52.6°F11.4°C 95% Calm Calm -- 26.62 in901.5 mb - 0.00 in0.0 mm 37.10 in942.3 mm
11:50 PM 51.0°F10.6°C 49.9°F9.9°C 96% Calm Calm -- 26.62 in901.5 mb - 0.00 in0.0 mm 37.10 in942.3 mm
11:55 PM 51.0°F10.6°C 49.9°F9.9°C 96% Calm Calm -- 26.62 in901.5 mb - 0.00 in0.0 mm 37.10 in942.3 mm